Peotone Weather
Station Historical Data
 
Daily Summary for September 23, 2017 Units:  English    Metric   Both
« Previous Day
Next Day »
Daily Weekly Monthly Yearly Custom
  Current: High: Low: Average:
Temperature: 68.3 °F 72.6 °F 68.3 °F 70.4 °F
Dew Point: 66.2 °F 68.2 °F 66.1 °F 67.2 °F
Humidity: 93% 93% 86% 90%
Wind Speed: 0.0mph 0.0mph 0.0mph 0mph
Wind Gust: 0.0mph 0.0mph - -
WindCalm - - North
Pressure: 30.01 in 30.01 in 29.99 in -
Precipitation: 0.00 in      
Historical Graphs
 
 
Tabular Data for September 23, 2017
Time Temperature Dew Point Pressure Wind Wind Speed Wind Gust Humidity Rainfall Rate (Hourly) solar Conditions
00:00 72.6 °F 68.2 °F 30.00 in Calm     86% 0.00 in 0.00 W/m2
00:03 72.5 °F 68.1 °F 30.00 in Calm     86% 0.00 in 0.00 W/m2
00:05 72.4 °F 68.0 °F 30.00 in Calm     86% 0.00 in 0.00 W/m2
00:08 72.3 °F 67.9 °F 30.00 in Calm     86% 0.00 in 0.00 W/m2
00:10 72.3 °F 68.2 °F 30.01 in Calm     87% 0.00 in 0.00 W/m2
00:13 72.3 °F 68.2 °F 30.01 in Calm     87% 0.00 in 0.00 W/m2
00:15 72.2 °F 68.1 °F 30.00 in Calm     87% 0.00 in 0.00 W/m2
00:18 72.0 °F 67.9 °F 30.00 in Calm     87% 0.00 in 0.00 W/m2
00:20 72.0 °F 67.9 °F 30.00 in Calm     87% 0.00 in 0.00 W/m2
00:23 72.1 °F 68.0 °F 30.00 in Calm     87% 0.00 in 0.00 W/m2
00:25 72.1 °F 68.0 °F 30.00 in Calm     87% 0.00 in 0.00 W/m2
00:28 72.0 °F 67.9 °F 30.00 in Calm     87% 0.00 in 0.00 W/m2
00:30 71.9 °F 67.8 °F 30.00 in Calm     87% 0.00 in 0.00 W/m2
00:33 71.8 °F 67.7 °F 30.00 in Calm     87% 0.00 in 0.00 W/m2
00:35 71.7 °F 68.0 °F 30.00 in Calm     88% 0.00 in 0.00 W/m2
00:38 71.6 °F 67.9 °F 30.00 in Calm     88% 0.00 in 0.00 W/m2
00:40 71.7 °F 68.0 °F 30.01 in Calm     88% 0.00 in 0.00 W/m2
00:43 71.8 °F 68.1 °F 30.01 in Calm     88% 0.00 in 0.00 W/m2
00:45 71.6 °F 67.9 °F 30.01 in Calm     88% 0.00 in 0.00 W/m2
00:48 71.6 °F 67.9 °F 30.01 in Calm     88% 0.00 in 0.00 W/m2
00:50 71.7 °F 68.0 °F 30.01 in Calm     88% 0.00 in 0.00 W/m2
00:53 71.8 °F 68.1 °F 30.01 in Calm     88% 0.00 in 0.00 W/m2
00:55 71.8 °F 68.1 °F 30.01 in Calm     88% 0.00 in 0.00 W/m2
01:00 71.5 °F 67.8 °F 30.01 in Calm     88% 0.00 in 0.00 W/m2
01:05 71.1 °F 67.4 °F 30.01 in Calm     88% 0.00 in 0.00 W/m2
01:10 71.0 °F 67.3 °F 30.01 in Calm     88% 0.00 in 0.00 W/m2
01:15 70.9 °F 67.5 °F 30.01 in Calm     89% 0.00 in 0.00 W/m2
01:20 71.0 °F 67.6 °F 30.01 in Calm     89% 0.00 in 0.00 W/m2
01:25 70.8 °F 67.4 °F 30.01 in Calm     89% 0.00 in 0.00 W/m2
01:30 70.6 °F 67.2 °F 30.01 in Calm     89% 0.00 in 0.00 W/m2
01:35 70.6 °F 67.5 °F 30.01 in Calm     90% 0.00 in 0.00 W/m2
01:40 70.6 °F 67.2 °F 30.01 in Calm     89% 0.00 in 0.00 W/m2
01:41 70.6 °F 67.2 °F 30.01 in Calm     89% 0.00 in 0.00 W/m2
01:45 70.6 °F 67.2 °F 30.01 in Calm     89% 0.00 in 0.00 W/m2
01:46 70.6 °F 67.2 °F 30.01 in Calm     89% 0.00 in 0.00 W/m2
01:50 70.4 °F 67.0 °F 30.01 in Calm     89% 0.00 in 0.00 W/m2
01:51 70.4 °F 67.0 °F 30.01 in Calm     89% 0.00 in 0.00 W/m2
01:55 70.0 °F 66.9 °F 30.01 in Calm     90% 0.00 in 0.00 W/m2
01:56 70.0 °F 66.9 °F 30.01 in Calm     90% 0.00 in 0.00 W/m2
02:00 69.8 °F 67.1 °F 30.01 in Calm     91% 0.00 in 0.00 W/m2
02:01 69.8 °F 67.1 °F 30.01 in Calm     91% 0.00 in 0.00 W/m2
02:05 69.8 °F 67.1 °F 30.00 in Calm     91% 0.00 in 0.00 W/m2
02:06 69.8 °F 67.1 °F 30.00 in Calm     91% 0.00 in 0.00 W/m2
02:10 69.8 °F 67.1 °F 30.00 in Calm     91% 0.00 in 0.00 W/m2
02:11 69.8 °F 67.1 °F 30.00 in Calm     91% 0.00 in 0.00 W/m2
02:15 69.9 °F 67.2 °F 30.00 in Calm     91% 0.00 in 0.00 W/m2
02:16 69.9 °F 67.2 °F 30.00 in Calm     91% 0.00 in 0.00 W/m2
02:20 69.9 °F 67.2 °F 30.00 in Calm     91% 0.00 in 0.00 W/m2
02:21 69.9 °F 67.2 °F 30.00 in Calm     91% 0.00 in 0.00 W/m2
02:25 69.9 °F 66.8 °F 30.00 in Calm     90% 0.00 in 0.00 W/m2
02:26 69.9 °F 66.8 °F 30.00 in Calm     90% 0.00 in 0.00 W/m2
02:30 69.7 °F 67.0 °F 30.00 in Calm     91% 0.00 in 0.00 W/m2
02:31 69.7 °F 67.0 °F 30.00 in Calm     91% 0.00 in 0.00 W/m2
02:35 69.3 °F 66.6 °F 30.00 in Calm     91% 0.00 in 0.00 W/m2
02:36 69.3 °F 66.6 °F 30.00 in Calm     91% 0.00 in 0.00 W/m2
02:40 69.3 °F 66.9 °F 30.00 in Calm     92% 0.00 in 0.00 W/m2
02:41 69.3 °F 66.9 °F 30.00 in Calm     92% 0.00 in 0.00 W/m2
02:45 69.4 °F 67.0 °F 30.00 in Calm     92% 0.00 in 0.00 W/m2
02:46 69.4 °F 67.0 °F 30.00 in Calm     92% 0.00 in 0.00 W/m2
02:50 69.1 °F 66.7 °F 30.00 in Calm     92% 0.00 in 0.00 W/m2
02:51 69.1 °F 66.7 °F 30.00 in Calm     92% 0.00 in 0.00 W/m2
02:55 68.9 °F 66.5 °F 29.99 in Calm     92% 0.00 in 0.00 W/m2
02:56 68.9 °F 66.5 °F 29.99 in Calm     92% 0.00 in 0.00 W/m2
03:01 68.9 °F 66.5 °F 29.99 in Calm     92% 0.00 in 0.00 W/m2
03:06 69.0 °F 66.6 °F 29.99 in Calm     92% 0.00 in 0.00 W/m2
03:11 68.9 °F 66.5 °F 29.99 in Calm     92% 0.00 in 0.00 W/m2
03:16 69.1 °F 66.7 °F 30.00 in Calm     92% 0.00 in 0.00 W/m2
03:21 68.9 °F 66.5 °F 30.00 in Calm     92% 0.00 in 0.00 W/m2
03:26 68.8 °F 66.4 °F 30.00 in Calm     92% 0.00 in 0.00 W/m2
03:32 68.7 °F 66.3 °F 30.00 in Calm     92% 0.00 in 0.00 W/m2
03:37 68.5 °F 66.1 °F 30.00 in Calm     92% 0.00 in 0.00 W/m2
03:42 68.6 °F 66.5 °F 30.00 in Calm     93% 0.00 in 0.00 W/m2
03:47 68.6 °F 66.5 °F 30.00 in Calm     93% 0.00 in 0.00 W/m2
03:52 68.6 °F 66.5 °F 30.00 in Calm     93% 0.00 in 0.00 W/m2
03:57 68.4 °F 66.3 °F 30.00 in Calm     93% 0.00 in 0.00 W/m2
04:02 68.3 °F 66.2 °F 30.01 in Calm     93% 0.00 in 0.00 W/m2
peotoneweather.com
Compliments of Weather Underground - 1 mb